createdAt,value
2019-05-10T00:00:31.986Z,12.08
2019-05-10T00:03:18.223Z,12.16
2019-05-10T00:06:05.046Z,12.23
2019-05-10T00:08:47.799Z,12.50
2019-05-10T00:11:29.800Z,12.30
2019-05-10T00:14:00.025Z,12.29
2019-05-10T00:16:28.612Z,12.27
2019-05-10T00:18:57.182Z,12.20
2019-05-10T00:21:25.708Z,12.04
2019-05-10T00:23:54.295Z,11.96
2019-05-10T00:26:22.907Z,12.02
2019-05-10T00:28:51.531Z,12.06
2019-05-10T00:31:20.127Z,11.99
2019-05-10T00:33:48.666Z,11.99
2019-05-10T00:36:17.302Z,12.07
2019-05-10T00:38:45.806Z,12.12
2019-05-10T00:41:14.387Z,12.04
2019-05-10T00:43:43.060Z,12.05
2019-05-10T00:46:12.657Z,12.04
2019-05-10T00:48:41.171Z,12.07
2019-05-10T00:51:09.801Z,12.18
2019-05-10T00:53:38.389Z,12.19
2019-05-10T00:56:07.005Z,12.10
2019-05-10T00:58:35.522Z,12.03
2019-05-10T01:01:04.139Z,11.93
2019-05-10T01:03:32.720Z,11.83
2019-05-10T01:06:01.170Z,11.89
2019-05-10T01:08:29.847Z,11.76
2019-05-10T01:10:58.365Z,11.67
2019-05-10T01:13:27.040Z,11.60
2019-05-10T01:15:55.675Z,11.64
2019-05-10T01:18:24.166Z,11.71
2019-05-10T01:20:52.750Z,11.76
2019-05-10T01:23:21.367Z,11.90
2019-05-10T01:25:49.963Z,11.85
2019-05-10T01:28:18.589Z,11.87
2019-05-10T01:30:47.106Z,11.89
2019-05-10T01:33:15.627Z,11.94
2019-05-10T01:35:44.242Z,11.99
2019-05-10T01:38:13.361Z,12.08
2019-05-10T01:40:42.039Z,12.01
2019-05-10T01:43:10.667Z,11.91
2019-05-10T01:45:39.198Z,11.82
2019-05-10T01:48:07.731Z,11.82
2019-05-10T01:50:36.352Z,11.72
2019-05-10T01:53:04.926Z,11.64
2019-05-10T01:55:33.470Z,11.60
2019-05-10T01:58:02.034Z,11.66
2019-05-10T02:00:30.737Z,11.68
2019-05-10T02:02:59.320Z,11.68
2019-05-10T02:05:27.867Z,11.67
2019-05-10T02:07:56.483Z,11.74
2019-05-10T02:10:25.176Z,11.81
2019-05-10T02:12:53.751Z,11.81
2019-05-10T02:15:22.392Z,11.85
2019-05-10T02:17:50.998Z,11.88
2019-05-10T02:20:19.639Z,12.03
2019-05-10T02:22:48.065Z,11.87
2019-05-10T02:25:16.691Z,11.81
2019-05-10T02:27:45.222Z,11.83
2019-05-10T02:30:14.180Z,11.87
2019-05-10T02:32:42.831Z,11.90
2019-05-10T02:35:11.514Z,11.95
2019-05-10T02:37:40.092Z,11.89
2019-05-10T02:40:08.888Z,11.86
2019-05-10T02:42:37.485Z,11.89
2019-05-10T02:45:07.863Z,11.93
2019-05-10T02:47:36.423Z,11.95
2019-05-10T02:50:06.770Z,11.91
2019-05-10T02:52:35.405Z,11.90
2019-05-10T02:55:05.342Z,11.94
2019-05-10T02:57:33.960Z,11.97
2019-05-10T03:00:05.881Z,11.99
2019-05-10T03:02:36.061Z,12.24
2019-05-10T03:05:06.191Z,12.06
2019-05-10T03:07:39.126Z,11.76
2019-05-10T03:10:12.707Z,11.48
2019-05-10T03:12:42.067Z,11.49
2019-05-10T03:15:12.377Z,11.49
2019-05-10T03:17:41.729Z,11.59
2019-05-10T03:20:12.236Z,11.53
2019-05-10T03:22:44.350Z,11.50
2019-05-10T03:25:13.745Z,11.62
2019-05-10T03:27:42.620Z,11.54
2019-05-10T03:30:11.655Z,11.50
2019-05-10T03:32:40.242Z,11.47
2019-05-10T03:35:09.929Z,11.52
2019-05-10T03:37:38.722Z,11.55
2019-05-10T03:40:08.640Z,11.61
2019-05-10T03:42:37.333Z,11.75
2019-05-10T03:45:07.236Z,12.03
2019-05-10T03:47:35.858Z,11.90
2019-05-10T03:50:06.464Z,11.89
2019-05-10T03:52:35.035Z,11.76
2019-05-10T03:55:04.103Z,11.64
2019-05-10T03:57:32.660Z,11.50
2019-05-10T04:00:01.228Z,11.25
2019-05-10T04:02:29.781Z,11.17
2019-05-10T04:04:58.358Z,11.17
2019-05-10T04:07:26.976Z,11.20
2019-05-10T04:09:55.594Z,11.19
2019-05-10T04:12:24.126Z,11.29
2019-05-10T04:14:52.630Z,11.26
2019-05-10T04:17:21.218Z,11.32
2019-05-10T04:19:49.840Z,11.33
2019-05-10T04:22:18.369Z,11.41
2019-05-10T04:24:46.866Z,11.57
2019-05-10T04:27:30.627Z,11.68
2019-05-10T04:29:45.704Z,11.72
2019-05-10T04:32:14.292Z,11.58
2019-05-10T04:34:42.769Z,11.38
2019-05-10T04:37:11.324Z,11.25
2019-05-10T04:39:39.960Z,11.16
2019-05-10T04:42:08.544Z,11.13
2019-05-10T04:44:37.022Z,11.24
2019-05-10T04:47:05.570Z,11.16
2019-05-10T04:49:34.095Z,11.16
2019-05-10T04:52:02.712Z,11.24
2019-05-10T04:54:31.338Z,11.23
2019-05-10T04:57:00.291Z,11.24
2019-05-10T04:59:28.924Z,11.27
2019-05-10T05:01:57.544Z,11.41
2019-05-10T05:04:26.110Z,11.41
2019-05-10T05:06:54.698Z,11.53
2019-05-10T05:09:23.373Z,11.77
2019-05-10T05:11:51.977Z,11.79
2019-05-10T05:14:20.504Z,11.66
2019-05-10T05:16:49.141Z,11.52
2019-05-10T05:19:17.623Z,11.44
2019-05-10T05:21:46.179Z,11.32
2019-05-10T05:24:16.954Z,11.43
2019-05-10T05:26:45.181Z,11.36
2019-05-10T05:29:13.752Z,11.42
2019-05-10T05:31:42.358Z,11.43
2019-05-10T05:34:10.901Z,11.53
2019-05-10T05:36:39.373Z,11.44
2019-05-10T05:39:08.510Z,11.60
2019-05-10T05:41:47.599Z,11.76
2019-05-10T05:44:07.460Z,11.97
2019-05-10T05:46:36.100Z,12.03
2019-05-10T05:49:04.696Z,12.08
2019-05-10T05:51:33.417Z,12.21
2019-05-10T05:54:04.157Z,12.51
2019-05-10T05:56:32.422Z,12.47
2019-05-10T05:59:00.871Z,12.28
2019-05-10T06:01:29.892Z,12.16
2019-05-10T06:04:00.132Z,12.19
2019-05-10T06:06:28.815Z,12.20
2019-05-10T06:08:59.715Z,12.13
2019-05-10T06:11:29.638Z,12.21
2019-05-10T06:14:03.733Z,12.21
2019-05-10T06:16:28.314Z,12.29
2019-05-10T06:18:56.879Z,12.40
2019-05-10T06:21:26.796Z,12.61
2019-05-10T06:23:59.076Z,12.72
2019-05-10T06:26:28.604Z,12.58
2019-05-10T06:29:01.181Z,12.34
2019-05-10T06:31:26.853Z,12.44
2019-05-10T06:33:55.543Z,12.64
2019-05-10T06:36:24.160Z,12.84
2019-05-10T06:38:52.760Z,13.18
2019-05-10T06:41:21.333Z,13.45
2019-05-10T06:43:51.138Z,13.58
2019-05-10T06:46:23.581Z,13.24
2019-05-10T06:48:50.707Z,12.89
2019-05-10T06:51:19.343Z,12.74
2019-05-10T06:53:52.646Z,12.83
2019-05-10T06:56:18.695Z,12.68
2019-05-10T06:58:47.415Z,12.74
2019-05-10T07:01:16.134Z,12.58
2019-05-10T07:03:44.793Z,12.46
2019-05-10T07:06:13.376Z,12.52
2019-05-10T07:08:44.567Z,12.60
2019-05-10T07:11:12.237Z,12.43
2019-05-10T07:13:46.611Z,12.18
2019-05-10T07:16:15.024Z,12.24
2019-05-10T07:18:41.574Z,12.48
2019-05-10T07:21:10.115Z,12.80
2019-05-10T07:23:44.179Z,13.09
2019-05-10T07:26:09.908Z,13.24
2019-05-10T07:28:38.554Z,13.41
2019-05-10T07:31:07.080Z,13.43
2019-05-10T07:33:37.243Z,13.51
2019-05-10T07:36:14.380Z,13.71
2019-05-10T07:38:36.337Z,14.13
2019-05-10T07:41:04.965Z,14.13
2019-05-10T07:43:33.565Z,13.91
2019-05-10T07:46:06.224Z,14.30
2019-05-10T07:48:32.441Z,15.07
2019-05-10T07:51:01.093Z,15.33
2019-05-10T07:53:29.599Z,15.80
2019-05-10T07:56:00.018Z,16.11
2019-05-10T07:58:28.534Z,15.57
2019-05-10T08:00:57.203Z,15.46
2019-05-10T08:03:25.650Z,15.42
2019-05-10T08:05:57.002Z,15.03
2019-05-10T08:08:24.575Z,14.69
2019-05-10T08:10:53.139Z,14.54
2019-05-10T08:13:25.127Z,14.24
2019-05-10T08:15:52.120Z,13.84
2019-05-10T08:18:25.206Z,13.44
2019-05-10T08:20:58.171Z,13.31
2019-05-10T08:23:23.761Z,13.38
2019-05-10T08:25:53.426Z,13.38
2019-05-10T08:28:22.837Z,13.51
2019-05-10T08:30:58.181Z,13.64
2019-05-10T08:33:22.905Z,13.97
2019-05-10T08:36:00.358Z,14.22
2019-05-10T08:38:22.103Z,14.94
2019-05-10T08:40:52.791Z,15.94
2019-05-10T08:43:21.798Z,16.53
2019-05-10T08:45:52.425Z,17.09
2019-05-10T08:48:23.318Z,17.01
2019-05-10T08:50:57.220Z,17.01
2019-05-10T08:53:23.142Z,16.84
2019-05-10T08:55:52.637Z,16.19
2019-05-10T08:58:31.082Z,15.85
2019-05-10T09:01:10.194Z,15.42
2019-05-10T09:03:22.739Z,15.20
2019-05-10T09:05:52.456Z,14.79
2019-05-10T09:08:24.793Z,14.59
2019-05-10T09:10:53.026Z,14.42
2019-05-10T09:13:22.885Z,14.49
2019-05-10T09:15:56.483Z,14.39
2019-05-10T09:18:22.885Z,14.14
2019-05-10T09:20:54.134Z,14.02
2019-05-10T09:23:22.800Z,14.12
2019-05-10T09:25:52.033Z,14.51
2019-05-10T09:28:21.861Z,14.53
2019-05-10T09:30:57.592Z,14.62
2019-05-10T09:33:22.390Z,14.52
2019-05-10T09:35:54.656Z,14.68
2019-05-10T09:38:22.129Z,14.87
2019-05-10T09:40:55.917Z,14.86
2019-05-10T09:43:24.156Z,14.49
2019-05-10T09:45:53.017Z,14.14
2019-05-10T09:48:22.823Z,13.91
2019-05-10T09:50:55.190Z,13.57
2019-05-10T09:53:26.510Z,13.59
2019-05-10T09:56:00.089Z,14.18
2019-05-10T09:58:22.632Z,14.69
2019-05-10T10:00:51.241Z,15.26
2019-05-10T10:03:20.721Z,15.42
2019-05-10T10:05:49.357Z,15.77
2019-05-10T10:08:17.822Z,15.62
2019-05-10T10:10:47.593Z,15.23
2019-05-10T10:13:35.689Z,15.23
2019-05-10T10:15:52.099Z,14.93
2019-05-10T10:18:22.006Z,14.79
2019-05-10T10:20:48.259Z,15.09
2019-05-10T10:23:17.397Z,15.25
2019-05-10T10:25:48.180Z,15.47
2019-05-10T10:28:19.097Z,15.73
2019-05-10T10:30:50.413Z,15.27
2019-05-10T10:33:24.862Z,15.13
2019-05-10T10:35:48.129Z,14.94
2019-05-10T10:38:17.906Z,14.59
2019-05-10T10:40:46.623Z,14.50
2019-05-10T10:43:15.133Z,14.65
2019-05-10T10:45:43.882Z,14.69
2019-05-10T10:48:13.045Z,14.75
2019-05-10T10:50:44.282Z,14.81
2019-05-10T10:53:11.874Z,14.83
2019-05-10T10:55:40.668Z,14.86
2019-05-10T10:58:10.805Z,15.05
2019-05-10T11:00:39.474Z,15.58
2019-05-10T11:03:08.068Z,15.85
2019-05-10T11:05:36.648Z,16.47
2019-05-10T11:08:05.283Z,16.50
2019-05-10T11:10:34.121Z,16.76
2019-05-10T11:13:10.696Z,17.09
2019-05-10T11:15:36.347Z,17.37
2019-05-10T11:18:03.317Z,17.47
2019-05-10T11:20:32.044Z,17.08
2019-05-10T11:23:00.730Z,17.00
2019-05-10T11:25:29.455Z,16.78
2019-05-10T11:28:00.956Z,16.61
2019-05-10T11:30:28.473Z,16.34
2019-05-10T11:32:57.077Z,15.86
2019-05-10T11:35:31.231Z,15.71
2019-05-10T11:37:55.870Z,15.56
2019-05-10T11:40:30.809Z,15.23
2019-05-10T11:42:54.852Z,15.04
2019-05-10T11:45:26.203Z,14.92
2019-05-10T11:47:58.952Z,14.94
2019-05-10T11:50:31.442Z,14.82
2019-05-10T11:52:54.555Z,14.65
2019-05-10T11:55:23.135Z,14.77
2019-05-10T11:59:04.843Z,14.64
2019-05-10T12:00:29.184Z,14.63
2019-05-10T12:03:06.921Z,14.55
2019-05-10T12:05:26.786Z,14.54
2019-05-10T12:07:54.833Z,14.52
2019-05-10T12:10:25.583Z,14.61
2019-05-10T12:13:08.587Z,14.88
2019-05-10T12:15:25.721Z,14.81
2019-05-10T12:20:38.937Z,14.53
2019-05-10T12:22:55.023Z,14.40
2019-05-10T12:25:42.085Z,14.36
2019-05-10T12:26:05.336Z,14.68
2019-05-10T12:27:53.994Z,14.26
2019-05-10T12:30:22.617Z,14.07
2019-05-10T12:32:56.101Z,14.13
2019-05-10T12:35:26.405Z,14.24
2019-05-10T12:37:54.133Z,14.09
2019-05-10T12:40:24.129Z,14.07
2019-05-10T12:42:53.145Z,14.23
2019-05-10T12:45:23.509Z,14.34
2019-05-10T12:47:52.543Z,14.57
2019-05-10T12:50:21.338Z,14.96
2019-05-10T12:53:02.709Z,15.00
2019-05-10T12:55:20.178Z,15.24
2019-05-10T12:57:48.785Z,15.42
2019-05-10T13:00:18.694Z,15.59
2019-05-10T13:02:51.311Z,15.61
2019-05-10T13:05:17.659Z,15.81
2019-05-10T13:07:46.229Z,16.11
2019-05-10T13:10:14.956Z,16.08
2019-05-10T13:12:46.841Z,16.35
2019-05-10T13:15:14.098Z,16.60
2019-05-10T13:17:49.586Z,16.71
2019-05-10T13:20:13.751Z,16.99
2019-05-10T13:22:42.365Z,16.77
2019-05-10T13:25:11.069Z,16.80
2019-05-10T13:27:39.677Z,17.03
2019-05-10T13:30:09.004Z,17.48
2019-05-10T13:32:37.771Z,17.77
2019-05-10T13:35:06.999Z,17.53
2019-05-10T13:37:35.578Z,17.21
2019-05-10T13:40:08.402Z,17.25
2019-05-10T13:42:43.167Z,17.58
2019-05-10T13:45:10.465Z,17.60
2019-05-10T13:47:39.098Z,17.70
2019-05-10T13:50:08.468Z,17.72
2019-05-10T13:52:38.831Z,17.91
2019-05-10T13:55:07.927Z,17.82
2019-05-10T13:57:36.577Z,17.81
2019-05-10T14:00:11.567Z,17.84
2019-05-10T14:02:40.156Z,17.51
2019-05-10T14:05:11.793Z,17.09
2019-05-10T14:07:39.558Z,17.19
2019-05-10T14:10:08.146Z,17.02
2019-05-10T14:12:36.663Z,16.77
2019-05-10T14:15:12.864Z,16.36
2019-05-10T14:17:36.503Z,16.11
2019-05-10T14:20:19.303Z,15.79
2019-05-10T14:22:37.850Z,14.95
2019-05-10T14:25:07.972Z,14.16
2019-05-10T14:27:38.541Z,13.93
2019-05-10T14:30:13.612Z,13.89
2019-05-10T14:32:38.549Z,13.85
2019-05-10T14:35:07.882Z,14.02
2019-05-10T14:37:36.554Z,14.04
2019-05-10T14:40:07.515Z,14.39
2019-05-10T14:42:36.093Z,14.39
2019-05-10T14:45:05.642Z,14.31
2019-05-10T14:47:46.648Z,14.61
2019-05-10T14:50:06.203Z,14.80
2019-05-10T14:52:34.719Z,15.17
2019-05-10T14:55:03.691Z,15.26
2019-05-10T14:57:32.209Z,15.33
2019-05-10T15:00:00.824Z,15.62
2019-05-10T15:02:29.469Z,16.21
2019-05-10T15:05:01.121Z,16.24
2019-05-10T15:07:28.297Z,16.32
2019-05-10T15:10:00.521Z,16.34
2019-05-10T15:12:27.141Z,16.17
2019-05-10T15:14:55.722Z,16.26
2019-05-10T15:17:24.651Z,15.84
2019-05-10T15:19:57.995Z,15.63
2019-05-10T15:22:24.816Z,15.62
2019-05-10T15:24:53.593Z,15.97
2019-05-10T15:27:23.999Z,16.45
2019-05-10T15:29:52.464Z,16.50
2019-05-10T15:32:21.006Z,16.65
2019-05-10T15:35:05.326Z,16.57
2019-05-10T15:37:20.199Z,16.56
2019-05-10T15:39:48.859Z,16.18
2019-05-10T15:42:17.374Z,15.94
2019-05-10T15:44:46.123Z,15.91
2019-05-10T15:47:20.269Z,15.81
2019-05-10T15:49:45.147Z,15.73
2019-05-10T15:52:18.065Z,15.41
2019-05-10T15:54:46.902Z,15.18
2019-05-10T15:57:19.986Z,15.10
2019-05-10T15:59:44.808Z,15.12
2019-05-10T16:02:13.403Z,15.12
2019-05-10T16:04:41.950Z,14.98
2019-05-10T16:07:14.472Z,15.09
2019-05-10T16:09:40.892Z,14.92
2019-05-10T16:12:09.580Z,14.82
2019-05-10T16:14:39.341Z,14.66
2019-05-10T16:17:10.421Z,14.38
2019-05-10T16:19:38.854Z,13.96
2019-05-10T16:22:07.494Z,13.59
2019-05-10T16:24:36.074Z,13.13
2019-05-10T16:27:04.687Z,12.74
2019-05-10T16:29:39.316Z,12.37
2019-05-10T16:32:03.527Z,12.09
2019-05-10T16:34:34.086Z,11.98
2019-05-10T16:37:02.504Z,12.18
2019-05-10T16:39:31.087Z,12.47
2019-05-10T16:41:59.602Z,12.56
2019-05-10T16:44:28.214Z,12.78
2019-05-10T16:46:56.817Z,12.94
2019-05-10T16:49:25.560Z,13.01
2019-05-10T16:51:54.217Z,13.13
2019-05-10T16:54:25.526Z,13.14
2019-05-10T16:56:59.376Z,12.97
2019-05-10T16:59:24.240Z,12.83
2019-05-10T17:02:03.577Z,12.95
2019-05-10T17:04:24.151Z,13.10
2019-05-10T17:06:55.559Z,13.29
2019-05-10T17:09:23.023Z,13.51
2019-05-10T17:11:51.584Z,13.81
2019-05-10T17:14:20.142Z,13.97
2019-05-10T17:16:49.603Z,14.00
2019-05-10T17:19:19.802Z,13.81
2019-05-10T17:21:48.459Z,13.71
2019-05-10T17:24:18.681Z,13.90
2019-05-10T17:26:47.272Z,14.15
2019-05-10T17:29:15.873Z,14.25
2019-05-10T17:31:45.512Z,14.49
2019-05-10T17:34:22.112Z,14.36
2019-05-10T17:36:44.964Z,14.10
2019-05-10T17:39:13.576Z,14.10
2019-05-10T17:41:42.204Z,13.89
2019-05-10T17:44:10.843Z,13.63
2019-05-10T17:46:39.428Z,13.62
2019-05-10T17:49:08.058Z,13.51
2019-05-10T17:51:36.683Z,13.28
2019-05-10T17:54:05.365Z,13.34
2019-05-10T17:56:38.734Z,13.41
2019-05-10T17:59:05.978Z,13.46
2019-05-10T18:01:34.668Z,13.48
2019-05-10T18:04:03.157Z,13.30
2019-05-10T18:06:31.758Z,13.23
2019-05-10T18:09:00.336Z,13.13
2019-05-10T18:11:28.991Z,13.18
2019-05-10T18:13:57.637Z,13.13
2019-05-10T18:16:26.517Z,13.21
2019-05-10T18:18:55.035Z,13.10
2019-05-10T18:21:24.214Z,13.26
2019-05-10T18:23:58.341Z,13.17
2019-05-10T18:26:23.338Z,13.17
2019-05-10T18:28:51.993Z,12.99
2019-05-10T18:31:20.649Z,12.65
2019-05-10T18:33:54.261Z,12.29
2019-05-10T18:36:19.563Z,11.98
2019-05-10T18:38:48.174Z,12.22
2019-05-10T18:41:16.748Z,12.20
2019-05-10T18:43:45.334Z,12.22
2019-05-10T18:46:14.065Z,12.51
2019-05-10T18:48:42.728Z,12.57
2019-05-10T18:51:11.452Z,12.39
2019-05-10T18:53:40.042Z,12.50
2019-05-10T18:56:08.663Z,12.50
2019-05-10T18:58:37.251Z,12.27
2019-05-10T19:01:05.899Z,12.45
2019-05-10T19:03:35.499Z,12.39
2019-05-10T19:06:11.271Z,11.89
2019-05-10T19:08:34.650Z,11.49
2019-05-10T19:11:04.270Z,11.72
2019-05-10T19:13:34.560Z,11.90
2019-05-10T19:16:03.669Z,11.97
2019-05-10T19:18:32.265Z,12.10
2019-05-10T19:21:00.907Z,12.30
2019-05-10T19:23:29.488Z,12.39
2019-05-10T19:25:58.092Z,12.49
2019-05-10T19:28:28.537Z,12.54
2019-05-10T19:30:58.609Z,12.50
2019-05-10T19:33:29.751Z,12.12
2019-05-10T19:35:58.098Z,11.62
2019-05-10T19:38:27.636Z,11.21
2019-05-10T19:40:56.236Z,10.93
2019-05-10T19:43:24.865Z,10.86
2019-05-10T19:45:57.262Z,11.17
2019-05-10T19:48:29.370Z,11.40
2019-05-10T19:50:54.257Z,11.55
2019-05-10T19:53:22.926Z,11.74
2019-05-10T19:55:56.832Z,11.84
2019-05-10T19:58:26.364Z,11.64
2019-05-10T20:00:52.233Z,11.55
2019-05-10T20:03:23.738Z,11.65
2019-05-10T20:05:52.343Z,11.51
2019-05-10T20:08:20.944Z,11.28
2019-05-10T20:10:49.550Z,11.32
2019-05-10T20:13:18.212Z,11.52
2019-05-10T20:15:46.847Z,11.60
2019-05-10T20:18:15.419Z,11.19
2019-05-10T20:20:44.148Z,10.90
2019-05-10T20:23:12.764Z,11.01
2019-05-10T20:25:41.331Z,11.01
2019-05-10T20:28:10.015Z,11.15
2019-05-10T20:30:38.665Z,11.35
2019-05-10T20:33:07.268Z,11.57
2019-05-10T20:35:35.841Z,11.56
2019-05-10T20:38:04.391Z,11.21
2019-05-10T20:40:36.954Z,10.76
2019-05-10T20:43:03.341Z,10.59
2019-05-10T20:45:32.052Z,10.51
2019-05-10T20:48:00.585Z,10.41
2019-05-10T20:50:29.220Z,10.33
2019-05-10T20:52:58.305Z,10.61
2019-05-10T20:55:26.935Z,11.02
2019-05-10T20:57:55.528Z,11.11
2019-05-10T21:00:24.350Z,11.15
2019-05-10T21:02:53.334Z,11.45
2019-05-10T21:05:21.881Z,11.57
2019-05-10T21:07:50.544Z,11.61
2019-05-10T21:10:19.128Z,11.17
2019-05-10T21:12:47.763Z,10.91
2019-05-10T21:15:16.332Z,10.86
2019-05-10T21:17:45.033Z,10.80
2019-05-10T21:20:13.767Z,11.10
2019-05-10T21:22:42.390Z,11.40
2019-05-10T21:25:11.095Z,11.61
2019-05-10T21:27:40.626Z,11.66
2019-05-10T21:30:09.597Z,11.48
2019-05-10T21:32:38.156Z,11.44
2019-05-10T21:35:06.761Z,11.56
2019-05-10T21:37:35.378Z,11.72
2019-05-10T21:40:05.964Z,11.93
2019-05-10T21:42:34.623Z,12.08
2019-05-10T21:45:03.230Z,12.05
2019-05-10T21:47:31.817Z,12.15
2019-05-10T21:50:00.433Z,12.24
2019-05-10T21:52:28.979Z,12.28
2019-05-10T21:54:57.671Z,12.26
2019-05-10T21:57:26.298Z,12.24
2019-05-10T21:59:54.896Z,12.13
2019-05-10T22:02:23.514Z,12.03
2019-05-10T22:04:52.154Z,11.97
2019-05-10T22:07:20.735Z,11.95
2019-05-10T22:09:49.293Z,12.05
2019-05-10T22:12:17.917Z,11.93
2019-05-10T22:14:46.517Z,11.77
2019-05-10T22:17:15.175Z,11.26
2019-05-10T22:19:43.757Z,11.03
2019-05-10T22:22:12.356Z,10.79
2019-05-10T22:24:40.950Z,10.47
2019-05-10T22:27:09.567Z,10.37
2019-05-10T22:29:38.262Z,10.45
2019-05-10T22:32:06.945Z,10.59
2019-05-10T22:34:35.387Z,10.91
2019-05-10T22:37:04.049Z,11.01
2019-05-10T22:39:32.643Z,11.03
2019-05-10T22:42:01.288Z,11.26
2019-05-10T22:44:29.833Z,11.49
2019-05-10T22:46:58.466Z,11.67
2019-05-10T22:49:27.100Z,11.71
2019-05-10T22:51:55.690Z,11.83
2019-05-10T22:54:24.330Z,11.89
2019-05-10T22:56:52.941Z,11.97
2019-05-10T22:59:21.577Z,12.05
2019-05-10T23:01:50.198Z,11.79
2019-05-10T23:04:18.729Z,11.49
2019-05-10T23:06:47.358Z,11.26
2019-05-10T23:09:24.645Z,11.23
2019-05-10T23:11:46.355Z,11.29
2019-05-10T23:14:14.873Z,11.37
2019-05-10T23:16:43.427Z,11.53
2019-05-10T23:19:12.077Z,11.28
2019-05-10T23:21:40.689Z,10.93
2019-05-10T23:24:10.856Z,10.64
2019-05-10T23:26:39.460Z,10.37
2019-05-10T23:29:08.019Z,10.16
2019-05-10T23:31:36.658Z,10.12
2019-05-10T23:34:05.300Z,10.20
2019-05-10T23:36:33.888Z,10.50
2019-05-10T23:39:02.437Z,10.78
2019-05-10T23:41:31.020Z,11.12
2019-05-10T23:43:59.519Z,11.41
2019-05-10T23:46:28.189Z,11.55
2019-05-10T23:48:56.759Z,11.50
2019-05-10T23:51:25.267Z,11.61
2019-05-10T23:53:53.810Z,11.71
2019-05-10T23:56:22.410Z,11.56
2019-05-10T23:58:50.970Z,11.64
